Time;durP1;ratioP1;P1;durP2;ratioP2;P2;SDS_P1;SDS_P2;PMS_P1;PMS_P2;Temp;Humidity;BMP_temperature;BMP_pressure;BME280_temperature;BME280_humidity;BME280_pressure;Samples;Min_cycle;Max_cycle;Signal;HPM_P1;HPM_P2
2022/06/10 00:00:34;;;;;;;9.35;2.75;;;11.50;99.90;;;;;;4965366;28;20046;-85
2022/06/10 00:03:00;;;;;;;9.25;3.20;;;11.40;99.90;;;;;;4977803;28;20055;-85
2022/06/10 00:05:28;;;;;;;10.02;3.10;;;11.40;99.90;;;;;;4966152;28;20041;-86
2022/06/10 00:07:54;;;;;;;10.25;3.15;;;11.50;99.90;;;;;;4984169;28;20058;-85
2022/06/10 00:10:24;;;;;;;9.27;3.45;;;11.40;99.90;;;;;;4964282;28;20035;-85
2022/06/10 00:12:50;;;;;;;9.43;3.50;;;11.40;99.90;;;;;;4964491;28;20053;-85
2022/06/10 00:15:17;;;;;;;12.32;3.67;;;11.40;99.90;;;;;;4976001;28;20209;-85
2022/06/10 00:17:44;;;;;;;6.10;3.35;;;11.30;99.90;;;;;;4965360;28;20489;-85
2022/06/10 00:20:14;;;;;;;8.50;3.25;;;11.30;99.90;;;;;;4964660;28;20100;-85
2022/06/10 00:22:40;;;;;;;10.35;3.97;;;11.30;99.90;;;;;;4983601;28;20051;-85
2022/06/10 00:25:06;;;;;;;8.77;3.00;;;11.30;99.90;;;;;;4967774;28;20049;-86
2022/06/10 00:27:31;;;;;;;10.15;3.20;;;11.20;99.90;;;;;;4966367;28;20542;-85
2022/06/10 00:29:57;;;;;;;8.35;3.38;;;11.30;99.90;;;;;;4967918;28;20118;-86
2022/06/10 00:32:23;;;;;;;12.70;3.97;;;11.20;99.90;;;;;;4968928;28;20358;-85
2022/06/10 00:34:49;;;;;;;9.73;3.40;;;11.20;99.90;;;;;;4965447;28;20246;-86
2022/06/10 00:37:15;;;;;;;8.18;3.33;;;11.20;99.90;;;;;;4961474;28;20173;-85
2022/06/10 00:39:43;;;;;;;9.88;3.65;;;11.20;99.90;;;;;;4977637;28;20441;-85
2022/06/10 00:42:11;;;;;;;11.98;3.88;;;11.10;99.90;;;;;;4962892;28;20129;-85
2022/06/10 00:44:48;;;;;;;13.07;3.88;;;11.10;99.90;;;;;;4964885;28;20057;-85
2022/06/10 00:47:23;;;;;;;7.82;3.70;;;11.10;99.90;;;;;;4993613;28;20180;-85
2022/06/10 00:49:58;;;;;;;9.20;3.78;;;11.10;99.90;;;;;;4967072;28;20035;-86
2022/06/10 00:52:37;;;;;;;7.15;3.45;;;11.00;99.90;;;;;;4948055;28;20049;-86
2022/06/10 00:55:05;;;;;;;11.13;4.15;;;11.10;99.90;;;;;;4967893;28;20311;-85
2022/06/10 00:57:39;;;;;;;8.32;3.78;;;11.10;99.90;;;;;;4989083;28;20522;-85
2022/06/10 01:00:09;;;;;;;9.65;3.83;;;11.00;99.90;;;;;;4984215;28;20034;-86
2022/06/10 01:02:36;;;;;;;10.40;3.67;;;11.00;99.90;;;;;;4988741;28;20050;-86
2022/06/10 01:05:09;;;;;;;8.88;3.78;;;11.00;99.90;;;;;;4989890;28;20461;-86
2022/06/10 01:07:42;;;;;;;11.68;4.60;;;11.00;99.90;;;;;;4949409;28;20082;-85
2022/06/10 01:10:12;;;;;;;7.40;4.00;;;11.00;99.90;;;;;;4989970;28;20100;-85
2022/06/10 01:12:44;;;;;;;11.52;4.40;;;11.00;99.90;;;;;;4979483;28;20038;-86
2022/06/10 01:15:27;;;;;;;11.65;4.20;;;11.00;99.90;;;;;;4988770;28;20058;-86
2022/06/10 01:18:11;;;;;;;10.40;4.28;;;11.00;99.90;;;;;;4960242;28;20113;-86
2022/06/10 01:20:46;;;;;;;10.77;5.33;;;11.00;99.90;;;;;;4963308;28;20133;-85
2022/06/10 01:23:14;;;;;;;10.45;3.97;;;11.00;99.90;;;;;;4991897;28;20450;-86
2022/06/10 01:29:52;;;;;;;10.13;4.20;;;10.90;99.90;;;;;;4965256;28;20573;-86
2022/06/10 01:32:38;;;;;;;10.00;4.70;;;10.90;99.90;;;;;;4962036;28;20524;-85
2022/06/10 01:35:25;;;;;;;12.07;4.85;;;10.90;99.90;;;;;;4964462;28;20106;-86
2022/06/10 01:38:17;;;;;;;11.95;4.65;;;10.90;99.90;;;;;;4967051;28;20216;-86
2022/06/10 01:40:51;;;;;;;13.75;4.85;;;10.90;99.90;;;;;;4991099;28;20514;-85
2022/06/10 01:43:26;;;;;;;10.82;4.05;;;10.90;99.90;;;;;;4961445;28;20058;-85
2022/06/10 01:46:14;;;;;;;9.05;4.70;;;10.80;99.90;;;;;;4988003;28;20067;-85
2022/06/10 01:48:52;;;;;;;7.85;4.25;;;10.80;99.90;;;;;;4989643;28;20097;-86
2022/06/10 01:51:33;;;;;;;7.43;3.95;;;10.80;99.90;;;;;;4970595;28;20122;-85
2022/06/10 01:54:07;;;;;;;9.25;4.90;;;10.80;99.90;;;;;;4949818;28;20046;-86
2022/06/10 01:56:40;;;;;;;11.57;4.50;;;10.80;99.90;;;;;;4966459;28;20536;-86
2022/06/10 01:59:11;;;;;;;11.13;4.55;;;10.70;99.90;;;;;;4965370;28;20042;-86
2022/06/10 02:01:44;;;;;;;10.25;4.60;;;10.80;99.90;;;;;;4991040;28;20055;-86
2022/06/10 02:04:23;;;;;;;10.32;4.57;;;10.70;99.90;;;;;;4990573;28;20046;-85
2022/06/10 02:06:58;;;;;;;14.82;5.18;;;10.80;99.90;;;;;;4961230;28;20471;-85
2022/06/10 02:09:36;;;;;;;10.80;4.60;;;10.70;99.90;;;;;;4974432;28;20046;-86
2022/06/10 02:12:23;;;;;;;12.27;4.72;;;10.70;99.90;;;;;;4962967;28;20106;-85
2022/06/10 02:14:53;;;;;;;13.95;4.60;;;10.70;99.90;;;;;;4962180;28;20497;-85
2022/06/10 02:17:23;;;;;;;11.38;4.88;;;10.80;99.90;;;;;;4944887;28;20113;-86
2022/06/10 02:19:56;;;;;;;10.50;4.82;;;10.70;99.90;;;;;;4960129;28;20118;-86
2022/06/10 02:22:46;;;;;;;9.50;4.88;;;10.80;99.90;;;;;;4989568;28;20050;-85
2022/06/10 02:25:17;;;;;;;14.18;5.00;;;10.70;99.90;;;;;;4977473;28;20502;-85
2022/06/10 02:27:47;;;;;;;9.65;4.95;;;10.70;99.90;;;;;;4964350;28;20054;-85
2022/06/10 02:30:31;;;;;;;9.30;4.40;;;10.70;99.90;;;;;;4964236;28;20564;-86
2022/06/10 02:32:58;;;;;;;10.25;4.80;;;10.80;99.90;;;;;;4962048;28;20129;-86
2022/06/10 02:35:28;;;;;;;9.50;4.72;;;10.70;99.90;;;;;;4961080;28;20536;-85
2022/06/10 02:38:15;;;;;;;14.38;5.38;;;10.70;99.90;;;;;;4961970;28;20046;-86
2022/06/10 02:41:08;;;;;;;10.27;5.22;;;10.70;99.90;;;;;;4961032;28;20081;-85
2022/06/10 02:43:55;;;;;;;10.07;4.95;;;10.60;99.90;;;;;;4987900;28;20441;-86
2022/06/10 02:46:30;;;;;;;10.15;4.78;;;10.60;99.90;;;;;;4974288;28;20046;-86
2022/06/10 02:49:18;;;;;;;9.32;5.03;;;10.60;99.90;;;;;;4970769;28;20590;-86
2022/06/10 02:51:46;;;;;;;16.48;5.00;;;10.60;99.90;;;;;;4966660;28;20049;-85
2022/06/10 02:54:30;;;;;;;13.18;5.57;;;10.60;99.90;;;;;;4969146;28;20042;-86
2022/06/10 02:56:57;;;;;;;10.48;4.78;;;10.60;99.90;;;;;;4951620;28;20046;-85
2022/06/10 03:02:17;;;;;;;10.65;5.07;;;10.50;99.90;;;;;;4965554;28;20144;-86
2022/06/10 03:05:19;;;;;;;10.18;5.22;;;10.50;99.90;;;;;;4970843;28;20052;-86
2022/06/10 03:08:26;;;;;;;14.27;5.15;;;10.50;99.90;;;;;;4970854;28;20638;-86
2022/06/10 03:11:04;;;;;;;13.35;5.03;;;10.50;99.90;;;;;;4967730;28;20070;-85
2022/06/10 03:13:46;;;;;;;15.25;5.20;;;10.50;1.00;;;;;;4964072;28;20442;-86
2022/06/10 03:16:39;;;;;;;11.77;5.55;;;10.40;1.00;;;;;;4967249;28;20046;-86
2022/06/10 03:19:25;;;;;;;13.35;4.90;;;10.50;1.00;;;;;;4969986;28;20413;-86
2022/06/10 03:22:03;;;;;;;10.80;5.13;;;10.40;1.00;;;;;;4993540;28;20600;-86
2022/06/10 03:24:38;;;;;;;13.70;5.18;;;10.50;1.00;;;;;;4967649;28;20074;-85
2022/06/10 03:27:28;;;;;;;9.65;5.03;;;10.50;1.00;;;;;;4968193;28;20081;-85
2022/06/10 03:30:17;;;;;;;11.82;5.00;;;10.50;1.00;;;;;;4990762;28;20149;-86
2022/06/10 03:33:18;;;;;;;10.20;4.50;;;10.50;1.00;;;;;;4984037;28;20934;-85
2022/06/10 03:35:54;;;;;;;11.57;4.80;;;10.50;1.00;;;;;;4968866;28;20054;-86
2022/06/10 03:38:20;;;;;;;13.30;4.40;;;10.50;1.00;;;;;;4992714;28;20050;-86
2022/06/10 03:40:56;;;;;;;13.13;4.97;;;10.60;1.00;;;;;;4983880;28;20426;-86
2022/06/10 03:43:24;;;;;;;13.02;5.15;;;10.50;1.00;;;;;;4967716;28;20125;-85
2022/06/10 03:46:00;;;;;;;12.95;4.93;;;10.60;1.00;;;;;;4976623;28;20485;-86
2022/06/10 03:48:28;;;;;;;13.25;5.15;;;10.60;1.00;;;;;;4982118;28;20049;-86
2022/06/10 03:50:56;;;;;;;13.68;5.15;;;10.60;1.00;;;;;;4991583;28;20042;-85
2022/06/10 03:53:24;;;;;;;11.55;5.40;;;10.60;1.00;;;;;;4964061;28;20537;-86
2022/06/10 03:55:50;;;;;;;11.90;5.15;;;10.60;1.00;;;;;;4979877;28;20051;-86
2022/06/10 03:58:16;;;;;;;10.60;4.55;;;10.70;1.00;;;;;;4967264;28;20064;-85
2022/06/10 04:00:43;;;;;;;12.30;5.53;;;10.70;1.00;;;;;;4967340;28;20089;-86
2022/06/10 04:03:09;;;;;;;11.75;5.20;;;10.80;1.00;;;;;;4964585;28;20043;-86
2022/06/10 04:05:35;;;;;;;9.80;4.47;;;10.90;1.00;;;;;;4969248;28;20046;-85
2022/06/10 04:08:01;;;;;;;15.20;5.43;;;11.00;1.00;;;;;;4965775;28;20121;-86
2022/06/10 04:10:29;;;;;;;16.55;5.47;;;11.10;1.00;;;;;;4964815;28;20137;-86
2022/06/10 04:12:55;;;;;;;11.60;4.78;;;11.10;1.00;;;;;;4967798;28;20432;-86
2022/06/10 04:15:25;;;;;;;9.48;4.80;;;11.30;1.00;;;;;;4971340;28;20516;-86
2022/06/10 04:17:52;;;;;;;12.27;4.88;;;11.40;1.00;;;;;;4993255;28;20055;-85
2022/06/10 04:20:22;;;;;;;14.10;4.28;;;11.50;99.90;;;;;;4992102;28;20042;-86
2022/06/10 04:22:47;;;;;;;13.18;4.50;;;11.60;99.90;;;;;;4964394;28;20047;-85
2022/06/10 04:25:13;;;;;;;10.43;4.68;;;11.80;99.90;;;;;;4967922;28;20521;-85
2022/06/10 04:27:40;;;;;;;9.50;4.43;;;11.90;99.90;;;;;;4974967;28;20043;-86
2022/06/10 04:30:20;;;;;;;11.93;5.00;;;12.00;99.90;;;;;;4967061;28;20478;-86
2022/06/10 04:32:48;;;;;;;15.40;4.80;;;12.10;99.90;;;;;;4967290;28;20117;-85
2022/06/10 04:35:14;;;;;;;10.15;4.10;;;12.30;99.90;;;;;;4951252;28;20042;-85
2022/06/10 04:37:40;;;;;;;11.70;4.05;;;12.40;99.90;;;;;;4958888;28;20510;-86
2022/06/10 04:40:06;;;;;;;9.10;4.22;;;12.60;99.90;;;;;;4979882;28;20062;-86
2022/06/10 04:42:32;;;;;;;11.02;4.03;;;12.60;99.90;;;;;;4963832;28;20073;-86
2022/06/10 04:44:58;;;;;;;14.68;4.28;;;12.80;99.90;;;;;;4986673;28;20055;-85
2022/06/10 04:47:24;;;;;;;11.63;4.05;;;12.90;99.90;;;;;;4975590;28;20126;-85
2022/06/10 04:49:50;;;;;;;13.20;4.18;;;13.10;99.90;;;;;;4964607;28;20034;-85
2022/06/10 04:52:18;;;;;;;11.90;3.95;;;13.20;99.90;;;;;;4993333;28;20097;-85
2022/06/10 04:54:44;;;;;;;9.15;3.97;;;13.30;99.90;;;;;;4964497;28;20066;-85
2022/06/10 04:57:10;;;;;;;10.25;3.67;;;13.50;99.90;;;;;;4976479;28;20049;-86
2022/06/10 04:59:35;;;;;;;10.15;3.50;;;13.60;99.90;;;;;;4961691;28;20133;-85
2022/06/10 05:02:01;;;;;;;12.73;3.88;;;13.90;99.90;;;;;;4960677;28;20042;-85
2022/06/10 05:04:27;;;;;;;12.40;3.97;;;14.10;99.90;;;;;;4968176;28;20548;-85
2022/06/10 05:06:52;;;;;;;8.75;3.65;;;14.40;99.90;;;;;;4978290;28;20047;-85
2022/06/10 05:09:18;;;;;;;12.18;4.00;;;14.50;99.90;;;;;;4965287;28;20248;-86
2022/06/10 05:11:44;;;;;;;9.88;3.65;;;14.80;99.90;;;;;;4966241;28;20047;-85
2022/06/10 05:14:10;;;;;;;9.60;4.15;;;14.80;99.90;;;;;;4955263;28;20480;-85
2022/06/10 05:16:36;;;;;;;10.50;3.83;;;14.90;99.90;;;;;;4963101;28;20566;-85
2022/06/10 05:19:02;;;;;;;12.32;3.90;;;14.80;99.90;;;;;;4960847;28;20214;-85
2022/06/10 05:21:28;;;;;;;13.48;4.22;;;14.90;99.90;;;;;;4964418;28;20181;-85
2022/06/10 05:23:55;;;;;;;11.57;4.07;;;14.90;99.90;;;;;;4978984;28;20396;-85
2022/06/10 05:26:21;;;;;;;16.02;4.10;;;15.00;99.90;;;;;;4978253;28;20043;-85
2022/06/10 05:28:50;;;;;;;8.63;3.95;;;15.00;99.90;;;;;;4965265;28;20292;-84
2022/06/10 05:31:15;;;;;;;10.45;3.75;;;15.00;99.90;;;;;;4964182;28;20555;-85
2022/06/10 05:36:25;;;;;;;11.27;3.95;;;15.10;99.90;;;;;;4969067;28;20038;-85
2022/06/10 05:38:51;;;;;;;10.07;3.97;;;15.20;99.90;;;;;;4962452;28;20488;-85
2022/06/10 05:44:01;;;;;;;9.02;3.53;;;15.40;99.90;;;;;;4991487;28;20789;-85
2022/06/10 05:46:27;;;;;;;8.05;3.22;;;15.30;99.90;;;;;;4946036;28;20046;-85
2022/06/10 05:48:53;;;;;;;12.23;3.95;;;15.40;99.90;;;;;;4963638;28;20429;-85
2022/06/10 05:51:19;;;;;;;11.32;3.50;;;15.40;99.90;;;;;;4968032;28;20174;-85
2022/06/10 05:53:45;;;;;;;11.23;3.97;;;15.50;99.90;;;;;;4961125;28;20553;-84
2022/06/10 05:56:14;;;;;;;9.93;3.72;;;15.40;99.90;;;;;;4967843;28;20104;-84
2022/06/10 05:58:39;;;;;;;13.35;3.83;;;15.50;99.90;;;;;;4961679;28;20050;-85
2022/06/10 06:01:05;;;;;;;11.40;3.58;;;15.50;99.90;;;;;;4976309;28;20038;-84
2022/06/10 06:03:31;;;;;;;12.55;4.28;;;15.60;99.90;;;;;;4966095;28;20045;-84
2022/06/10 06:05:56;;;;;;;10.30;3.75;;;15.50;99.90;;;;;;4965766;28;20573;-85
2022/06/10 06:08:22;;;;;;;8.32;3.78;;;15.70;99.90;;;;;;4967454;28;20126;-84
2022/06/10 06:10:48;;;;;;;13.25;4.00;;;15.70;99.90;;;;;;4947780;28;20042;-84
2022/06/10 06:13:13;;;;;;;13.68;4.32;;;15.80;99.90;;;;;;4965833;28;20034;-84
2022/06/10 06:15:39;;;;;;;11.45;3.78;;;15.70;99.90;;;;;;4984242;28;20050;-85
2022/06/10 06:18:06;;;;;;;12.23;4.40;;;15.90;99.90;;;;;;4965027;28;20156;-85
2022/06/10 06:20:32;;;;;;;9.55;3.95;;;15.90;99.90;;;;;;4962287;28;20585;-85
2022/06/10 06:22:58;;;;;;;11.82;3.97;;;16.10;99.90;;;;;;4982152;28;20133;-84
2022/06/10 06:25:24;;;;;;;10.27;4.07;;;16.10;99.90;;;;;;4961568;28;20469;-85
2022/06/10 06:27:50;;;;;;;11.48;3.97;;;16.40;99.90;;;;;;4961672;28;20134;-84
2022/06/10 06:30:26;;;;;;;11.52;3.53;;;16.40;99.90;;;;;;4968850;28;20070;-84
2022/06/10 06:32:52;;;;;;;11.10;3.83;;;16.30;99.90;;;;;;4961789;28;20050;-85
2022/06/10 06:35:18;;;;;;;9.25;3.90;;;16.30;99.90;;;;;;4978502;28;20038;-84
2022/06/10 06:37:44;;;;;;;9.02;3.78;;;16.10;99.90;;;;;;4965821;28;20572;-84
2022/06/10 06:40:11;;;;;;;8.73;4.03;;;16.00;99.90;;;;;;4975370;28;20053;-84
2022/06/10 06:42:36;;;;;;;11.05;3.30;;;16.00;99.90;;;;;;4946236;28;20085;-84
2022/06/10 06:45:05;;;;;;;5.82;3.20;;;15.80;99.90;;;;;;4967590;28;20528;-85
2022/06/10 06:47:31;;;;;;;8.00;3.17;;;15.80;99.90;;;;;;4979365;28;20053;-84
2022/06/10 06:49:57;;;;;;;8.95;3.33;;;16.00;99.90;;;;;;4958577;28;20410;-84
2022/06/10 06:52:23;;;;;;;7.97;3.40;;;16.10;99.90;;;;;;4963675;28;20495;-84
2022/06/10 06:54:49;;;;;;;10.05;3.47;;;16.30;99.90;;;;;;4965471;28;20066;-84
2022/06/10 06:57:14;;;;;;;8.88;3.80;;;16.50;99.90;;;;;;4961155;28;20514;-85
2022/06/10 06:59:40;;;;;;;8.45;3.70;;;16.50;99.90;;;;;;4961286;28;20065;-84
2022/06/10 07:02:06;;;;;;;11.13;3.80;;;16.60;99.90;;;;;;4976924;28;20042;-85
2022/06/10 07:04:32;;;;;;;10.45;4.00;;;16.80;99.90;;;;;;4966058;28;20050;-84
2022/06/10 07:06:57;;;;;;;16.58;4.63;;;16.90;99.90;;;;;;4958046;28;20506;-85
2022/06/10 07:09:23;;;;;;;10.90;4.47;;;17.00;99.90;;;;;;4961616;28;20050;-85
2022/06/10 07:11:49;;;;;;;12.05;4.25;;;17.30;99.90;;;;;;4976346;28;20443;-84
2022/06/10 07:14:15;;;;;;;9.90;4.20;;;17.40;99.90;;;;;;4982694;28;20443;-85
2022/06/10 07:16:41;;;;;;;17.13;4.57;;;17.60;99.90;;;;;;4963053;28;20055;-85
2022/06/10 07:19:08;;;;;;;14.60;5.25;;;17.70;99.90;;;;;;4965346;28;20043;-85
2022/06/10 07:21:36;;;;;;;11.07;4.43;;;17.80;99.90;;;;;;4953579;28;20196;-85
2022/06/10 07:24:02;;;;;;;11.40;5.78;;;17.70;99.90;;;;;;4958797;28;20108;-85
2022/06/10 07:26:28;;;;;;;16.23;5.60;;;17.60;99.90;;;;;;4969060;28;20047;-85
2022/06/10 07:28:53;;;;;;;12.50;5.57;;;17.80;99.90;;;;;;4959666;28;20050;-85
2022/06/10 07:31:20;;;;;;;12.40;5.55;;;18.00;99.90;;;;;;4967066;28;20057;-84
2022/06/10 07:33:45;;;;;;;11.50;5.25;;;17.80;99.90;;;;;;4977671;28;20034;-85
2022/06/10 07:36:11;;;;;;;12.48;5.90;;;17.80;99.90;;;;;;4980379;28;20557;-84
2022/06/10 07:38:40;;;;;;;10.55;5.43;;;17.80;99.90;;;;;;4958338;28;20035;-85
2022/06/10 07:43:51;;;;;;;11.50;6.13;;;17.80;99.90;;;;;;4969783;28;20051;-85
2022/06/10 07:46:19;;;;;;;14.32;5.85;;;17.70;99.90;;;;;;4967170;28;20074;-85
2022/06/10 07:48:45;;;;;;;12.00;5.88;;;17.70;99.90;;;;;;4962806;28;20047;-84
2022/06/10 07:51:12;;;;;;;11.23;5.50;;;17.50;99.90;;;;;;4953202;28;20077;-84
2022/06/10 07:53:41;;;;;;;11.35;5.65;;;17.70;99.90;;;;;;4969952;28;20620;-84
2022/06/10 07:56:08;;;;;;;8.35;5.03;;;17.70;99.90;;;;;;4966275;28;20126;-85
2022/06/10 07:58:34;;;;;;;13.43;6.28;;;17.80;99.90;;;;;;4963077;28;20249;-84
2022/06/10 08:01:00;;;;;;;9.80;5.45;;;17.90;99.90;;;;;;4969027;28;20596;-85
2022/06/10 08:03:27;;;;;;;11.13;5.32;;;18.00;99.90;;;;;;4966408;28;20721;-85
2022/06/10 08:05:53;;;;;;;9.00;5.47;;;18.00;99.90;;;;;;4965810;28;20051;-84
2022/06/10 08:08:20;;;;;;;11.57;5.30;;;18.20;99.90;;;;;;4978524;28;20125;-84
2022/06/10 08:10:46;;;;;;;12.00;5.47;;;17.90;99.90;;;;;;4962730;28;20166;-84
2022/06/10 08:13:13;;;;;;;15.52;5.30;;;18.10;99.90;;;;;;4963687;28;20177;-85
2022/06/10 08:15:41;;;;;;;12.98;6.25;;;18.00;99.90;;;;;;4963519;28;20043;-85
2022/06/10 08:18:11;;;;;;;11.00;5.65;;;18.00;99.90;;;;;;4992314;28;20604;-85
2022/06/10 08:23:27;;;;;;;9.45;5.40;;;18.00;99.90;;;;;;4982956;28;20145;-84
2022/06/10 08:25:54;;;;;;;17.42;5.38;;;18.30;99.90;;;;;;4965564;28;20519;-85
2022/06/10 08:28:20;;;;;;;10.50;4.70;;;18.50;99.90;;;;;;4967753;28;20085;-85
2022/06/10 08:30:46;;;;;;;12.40;5.15;;;18.60;99.90;;;;;;4962955;28;20055;-85
2022/06/10 08:33:12;;;;;;;13.20;5.38;;;18.70;99.90;;;;;;4962015;28;20442;-85
2022/06/10 08:35:39;;;;;;;14.00;5.35;;;18.70;99.90;;;;;;4949339;28;20078;-85
2022/06/10 08:38:08;;;;;;;9.77;5.15;;;18.70;99.90;;;;;;4980236;28;20069;-84
2022/06/10 08:40:48;;;;;;;12.13;5.50;;;18.60;99.90;;;;;;4958302;28;20070;-85
2022/06/10 08:43:42;;;;;;;8.70;4.70;;;18.30;99.90;;;;;;4975858;28;20706;-85
2022/06/10 08:46:38;;;;;;;13.38;4.90;;;18.20;99.90;;;;;;4987793;28;20234;-85
2022/06/10 08:49:29;;;;;;;10.63;4.80;;;18.10;99.90;;;;;;4965018;28;20053;-85
2022/06/10 08:52:06;;;;;;;10.32;5.15;;;18.00;99.90;;;;;;4956227;28;20038;-85
2022/06/10 08:54:48;;;;;;;18.58;6.72;;;17.80;99.90;;;;;;4961957;28;20492;-85
2022/06/10 08:57:37;;;;;;;13.50;5.45;;;17.70;99.90;;;;;;4980846;28;20050;-84
2022/06/10 09:00:28;;;;;;;11.77;6.13;;;17.60;99.90;;;;;;4948171;28;20054;-85
2022/06/10 09:03:11;;;;;;;13.18;5.72;;;17.90;99.90;;;;;;4955750;28;20362;-84
2022/06/10 09:05:43;;;;;;;9.40;5.20;;;18.50;99.90;;;;;;4964463;28;20037;-85
2022/06/10 09:08:34;;;;;;;11.30;5.35;;;19.20;99.90;;;;;;4980849;28;20047;-85
2022/06/10 09:11:27;;;;;;;12.75;5.05;;;19.60;99.90;;;;;;4960733;28;20563;-85
2022/06/10 09:14:16;;;;;;;10.20;4.95;;;19.70;99.90;;;;;;4963416;28;20633;-85
2022/06/10 09:17:09;;;;;;;10.10;5.18;;;19.50;99.90;;;;;;4977700;28;20180;-85
2022/06/10 09:19:51;;;;;;;11.38;5.15;;;19.60;99.90;;;;;;4995001;28;20149;-84
2022/06/10 09:22:46;;;;;;;10.60;4.90;;;19.50;99.90;;;;;;4988674;28;20047;-85
2022/06/10 09:25:26;;;;;;;7.57;4.87;;;19.20;99.90;;;;;;4976402;28;20588;-85
2022/06/10 09:27:57;;;;;;;11.18;5.18;;;19.00;99.90;;;;;;4959045;28;20101;-85
2022/06/10 09:30:35;;;;;;;13.45;5.43;;;18.90;99.90;;;;;;4959432;28;20046;-85
2022/06/10 09:33:17;;;;;;;11.57;5.18;;;18.80;99.90;;;;;;4978278;28;20117;-85
2022/06/10 09:35:51;;;;;;;10.18;4.88;;;18.50;99.90;;;;;;4962169;28;20486;-85
2022/06/10 09:38:46;;;;;;;10.77;4.75;;;18.30;99.90;;;;;;4961416;28;20081;-85
2022/06/10 09:41:33;;;;;;;13.93;5.35;;;18.40;99.90;;;;;;4964316;28;20125;-85
2022/06/10 09:44:11;;;;;;;14.25;5.80;;;18.50;99.90;;;;;;4991454;28;20047;-85
2022/06/10 09:46:50;;;;;;;12.27;6.00;;;18.40;99.90;;;;;;4977872;28;20054;-85
2022/06/10 09:49:38;;;;;;;13.88;5.18;;;18.30;99.90;;;;;;4963209;28;20031;-85
2022/06/10 09:52:30;;;;;;;9.02;5.10;;;18.70;99.90;;;;;;4987906;28;20042;-84
2022/06/10 09:55:14;;;;;;;15.05;5.28;;;18.90;99.90;;;;;;4970278;28;20035;-85
2022/06/10 09:57:39;;;;;;;8.98;5.25;;;19.20;99.90;;;;;;4977868;28;20114;-85
2022/06/10 10:00:21;;;;;;;13.90;4.50;;;19.20;99.90;;;;;;4983525;28;20212;-85
2022/06/10 10:03:09;;;;;;;11.18;4.22;;;19.70;99.90;;;;;;4982189;28;20082;-85
2022/06/10 10:06:02;;;;;;;9.88;4.25;;;20.30;99.90;;;;;;4973699;28;20049;-85
2022/06/10 10:09:03;;;;;;;13.38;5.03;;;20.70;99.90;;;;;;4963860;28;20057;-85
2022/06/10 10:11:32;;;;;;;15.20;5.32;;;20.90;99.90;;;;;;4971344;28;20177;-85
2022/06/10 10:14:00;;;;;;;9.80;5.28;;;20.70;99.90;;;;;;4991710;28;20035;-85
2022/06/10 10:17:03;;;;;;;9.68;5.00;;;20.70;99.90;;;;;;4960819;28;20046;-85
2022/06/10 10:19:50;;;;;;;14.02;5.80;;;20.60;99.90;;;;;;4964004;28;20050;-85
2022/06/10 10:22:19;;;;;;;13.75;5.30;;;20.50;99.90;;;;;;4992494;28;20066;-85
2022/06/10 10:24:49;;;;;;;11.88;5.30;;;20.80;99.90;;;;;;4980806;28;20043;-84
2022/06/10 10:27:31;;;;;;;18.17;6.50;;;21.20;99.90;;;;;;4963031;28;20047;-85
2022/06/10 10:30:23;;;;;;;9.48;4.53;;;21.20;99.90;;;;;;4978674;28;20108;-85
2022/06/10 10:32:55;;;;;;;11.57;4.70;;;21.90;99.90;;;;;;4946395;28;20134;-85
2022/06/10 10:35:30;;;;;;;12.68;5.03;;;21.70;99.90;;;;;;4975332;28;20039;-85
2022/06/10 10:37:59;;;;;;;11.18;5.22;;;21.50;80.70;;;;;;4945847;28;20070;-85
2022/06/10 10:40:46;;;;;;;10.73;4.22;;;21.10;99.90;;;;;;4963000;28;20125;-85
2022/06/10 10:43:18;;;;;;;13.43;4.80;;;21.10;99.90;;;;;;4944277;28;20054;-85
2022/06/10 10:45:56;;;;;;;10.77;4.20;;;21.20;92.80;;;;;;4966729;28;20050;-84
2022/06/10 10:48:31;;;;;;;8.35;3.90;;;21.00;99.90;;;;;;4963997;28;20055;-85
2022/06/10 10:51:21;;;;;;;10.70;4.75;;;20.80;99.90;;;;;;4965394;28;20042;-85
2022/06/10 10:53:55;;;;;;;8.95;4.13;;;20.80;99.90;;;;;;4966436;28;20046;-85
2022/06/10 10:56:31;;;;;;;9.50;4.20;;;20.60;99.90;;;;;;4963551;28;20047;-85
2022/06/10 10:58:57;;;;;;;12.45;4.00;;;20.80;99.90;;;;;;4988910;28;20038;-85
2022/06/10 11:01:44;;;;;;;8.77;3.90;;;21.00;99.90;;;;;;4961724;28;20053;-85
2022/06/10 11:04:14;;;;;;;8.50;3.75;;;21.20;99.90;;;;;;4965929;28;20051;-85
2022/06/10 11:06:40;;;;;;;10.65;4.13;;;21.30;99.90;;;;;;4966036;28;20117;-84
2022/06/10 11:09:22;;;;;;;10.63;4.15;;;21.00;99.90;;;;;;4966531;28;20529;-84
2022/06/10 11:11:49;;;;;;;10.02;3.95;;;20.90;99.90;;;;;;4960524;28;20035;-85
2022/06/10 11:14:36;;;;;;;6.78;3.50;;;20.70;99.90;;;;;;4962753;28;20038;-85
2022/06/10 11:17:14;;;;;;;13.27;3.92;;;20.20;99.90;;;;;;4968349;28;20051;-85
2022/06/10 11:20:15;;;;;;;8.60;3.75;;;19.90;99.90;;;;;;4975096;28;20066;-85
2022/06/10 11:22:44;;;;;;;7.88;3.80;;;20.00;99.90;;;;;;4948112;28;20054;-84
2022/06/10 11:25:14;;;;;;;10.38;3.92;;;20.10;99.90;;;;;;4967399;28;20133;-85
2022/06/10 11:27:49;;;;;;;10.52;3.97;;;20.30;99.90;;;;;;4980290;28;20074;-85
2022/06/10 11:30:18;;;;;;;;;;;20.30;99.90;;;;;;4997575;28;20073;-85
2022/06/10 11:32:50;;;;;;;8.85;3.72;;;20.50;99.90;;;;;;4993279;28;19926;-85
2022/06/10 11:35:25;;;;;;;9.45;4.32;;;20.40;99.90;;;;;;4963329;28;20104;-85
2022/06/10 11:37:58;;;;;;;11.10;3.97;;;20.40;99.90;;;;;;4965178;28;20260;-84
2022/06/10 11:40:40;;;;;;;11.68;4.00;;;20.50;99.90;;;;;;4962980;28;20101;-85
2022/06/10 11:43:31;;;;;;;11.50;4.10;;;20.60;99.90;;;;;;4963607;28;20054;-84
2022/06/10 11:46:24;;;;;;;7.93;3.88;;;20.50;99.90;;;;;;4993210;28;20531;-85
2022/06/10 11:48:59;;;;;;;9.93;4.43;;;20.70;99.90;;;;;;4995797;28;20672;-85
2022/06/10 11:51:40;;;;;;;7.15;3.60;;;20.60;99.90;;;;;;4996032;28;20171;-84
2022/06/10 11:54:31;;;;;;;7.82;3.42;;;21.10;99.90;;;;;;4993191;28;20278;-85
2022/06/10 12:00:32;;;;;;;10.48;3.63;;;21.60;99.80;;;;;;4990692;28;20363;-85
2022/06/10 12:03:34;;;;;;;7.50;3.20;;;22.20;99.90;;;;;;4996365;28;20134;-85
2022/06/10 12:06:19;;;;;;;10.27;3.70;;;23.00;99.90;;;;;;4937712;28;20051;-85
2022/06/10 12:09:01;;;;;;;8.93;3.60;;;23.30;99.90;;;;;;4966109;28;20059;-85
2022/06/10 12:11:50;;;;;;;10.13;3.30;;;22.70;14.40;;;;;;4979535;28;20569;-85
2022/06/10 12:14:41;;;;;;;11.55;3.60;;;22.50;43.70;;;;;;4970708;28;20055;-85
2022/06/10 12:17:25;;;;;;;11.48;3.63;;;22.00;66.20;;;;;;4980615;28;20057;-84
2022/06/10 12:20:19;;;;;;;7.63;3.40;;;21.50;99.90;;;;;;4971407;28;20173;-85
2022/06/10 12:22:45;;;;;;;14.57;3.90;;;21.60;99.90;;;;;;4985355;28;20129;-85
2022/06/10 12:25:16;;;;;;;11.43;3.63;;;21.60;99.90;;;;;;4983869;28;20126;-84
2022/06/10 12:28:15;;;;;;;12.05;3.95;;;21.70;99.90;;;;;;4966879;28;20047;-85
2022/06/10 12:30:45;;;;;;;10.65;3.83;;;21.60;99.90;;;;;;4979576;28;20050;-85
2022/06/10 12:33:37;;;;;;;9.13;3.40;;;21.70;99.90;;;;;;4981013;28;20849;-85
2022/06/10 12:36:06;;;;;;;8.07;3.30;;;21.80;99.90;;;;;;4992059;28;20589;-85
2022/06/10 12:38:38;;;;;;;11.15;3.20;;;22.00;99.90;;;;;;4968157;28;20254;-85
2022/06/10 12:41:27;;;;;;;6.20;3.00;;;22.20;99.90;;;;;;4966000;28;20050;-85
2022/06/10 12:43:59;;;;;;;7.30;3.22;;;22.40;92.60;;;;;;4962410;28;20081;-85
2022/06/10 12:46:30;;;;;;;10.20;3.25;;;22.70;69.30;;;;;;4981708;28;20042;-85
2022/06/10 12:48:56;;;;;;;10.70;3.15;;;22.80;82.30;;;;;;4966737;28;20079;-85
2022/06/10 12:51:37;;;;;;;9.80;3.75;;;22.70;1.00;;;;;;4967341;28;20053;-85
2022/06/10 12:54:14;;;;;;;8.73;3.25;;;22.70;22.90;;;;;;4968375;28;20101;-85
2022/06/10 12:56:40;;;;;;;12.30;3.08;;;22.80;1.00;;;;;;4960813;28;20314;-85
2022/06/10 12:59:12;;;;;;;27.08;12.80;;;22.80;1.00;;;;;;4964237;28;20122;-85
2022/06/10 13:01:37;;;;;;;8.25;3.05;;;22.60;99.90;;;;;;4980234;28;20516;-85
2022/06/10 13:04:23;;;;;;;10.38;4.28;;;22.20;1.00;;;;;;4965841;28;20057;-85
2022/06/10 13:06:57;;;;;;;11.10;5.25;;;22.00;1.00;;;;;;4949731;28;20648;-85
2022/06/10 13:09:33;;;;;;;9.35;3.55;;;22.00;34.80;;;;;;4961581;28;20042;-85
2022/06/10 13:12:06;;;;;;;8.57;3.63;;;21.70;1.00;;;;;;4977925;28;20047;-85
2022/06/10 13:14:34;;;;;;;7.72;3.38;;;21.40;39.50;;;;;;4965552;28;20031;-85
2022/06/10 13:17:00;;;;;;;6.47;3.42;;;21.40;72.10;;;;;;4979292;28;20042;-85
2022/06/10 13:19:34;;;;;;;7.07;3.92;;;21.20;79.30;;;;;;4977984;28;20053;-85
2022/06/10 13:22:23;;;;;;;8.15;3.47;;;21.00;43.80;;;;;;4959859;28;20043;-85
2022/06/10 13:24:54;;;;;;;9.43;4.10;;;20.80;56.00;;;;;;4972763;28;20133;-85
2022/06/10 13:27:24;;;;;;;9.18;4.45;;;21.10;91.90;;;;;;4985701;28;20049;-85
2022/06/10 13:30:00;;;;;;;11.02;4.53;;;21.00;80.30;;;;;;4965388;28;20054;-85
2022/06/10 13:32:27;;;;;;;7.72;4.00;;;21.20;32.00;;;;;;4995852;28;20038;-85
2022/06/10 13:34:56;;;;;;;11.48;4.65;;;21.50;65.80;;;;;;4963842;28;20033;-85